Terminal Aerodrome Forecast
Issued by NWS

Home | Current Version | Previous Version | Text Only | Print | Product List | Glossary On
Versions: 1 2 3 4 5 6 7 8 9 10 11 12 13 14 15
000
FTUS44 KLIX 291740
TAFMSY
TAF
KMSY 291740Z 2918/3018 23008KT P6SM FEW150 OVC250
     FM292100 22011KT P6SM VCTS BKN030CB BKN080
     FM300200 VRB03KT P6SM BKN060 OVC100
     FM300700 09003KT P6SM VCSH BKN060
     FM301400 07009KT P6SM BKN050
     FM301600 09012KT P6SM VCTS BKN030CB=

USA.gov is the U.S. government's official web portal to all federal, state and local government web resources and services.